createdAt,value
2022-08-27T00:02:28.506Z,18.13
2022-08-27T00:10:51.707Z,18.17
2022-08-27T00:19:14.863Z,18.19
2022-08-27T00:27:38.330Z,18.16
2022-08-27T00:36:01.926Z,18.13
2022-08-27T00:44:25.203Z,18.03
2022-08-27T00:53:01.846Z,17.93
2022-08-27T01:01:29.441Z,17.87
2022-08-27T01:09:55.315Z,17.77
2022-08-27T01:18:19.387Z,17.68
2022-08-27T01:26:42.428Z,17.62
2022-08-27T01:35:09.076Z,17.56
2022-08-27T01:43:32.043Z,17.54
2022-08-27T01:51:55.108Z,17.52
2022-08-27T02:00:28.852Z,17.48
2022-08-27T02:08:51.834Z,17.52
2022-08-27T02:17:14.805Z,17.55
2022-08-27T02:25:37.902Z,17.41
2022-08-27T02:34:01.316Z,17.34
2022-08-27T02:42:24.528Z,17.28
2022-08-27T02:50:47.739Z,17.20
2022-08-27T02:59:10.570Z,17.14
2022-08-27T03:07:33.548Z,17.12
2022-08-27T03:15:56.436Z,17.09
2022-08-27T03:24:19.793Z,17.03
2022-08-27T03:32:45.212Z,17.01
2022-08-27T03:41:08.210Z,17.04
2022-08-27T03:49:31.654Z,17.07
2022-08-27T03:57:56.321Z,17.10
2022-08-27T04:06:19.260Z,17.08
2022-08-27T04:14:42.331Z,17.01
2022-08-27T04:23:05.683Z,17.00
2022-08-27T04:31:29.968Z,17.14
2022-08-27T04:39:53.397Z,17.43
2022-08-27T04:48:18.864Z,17.69
2022-08-27T04:56:42.520Z,17.87
2022-08-27T05:05:05.952Z,18.02
2022-08-27T05:13:30.021Z,18.27
2022-08-27T05:21:53.973Z,18.70
2022-08-27T05:30:17.287Z,19.92
2022-08-27T05:38:40.281Z,21.81
2022-08-27T05:47:03.239Z,23.28
2022-08-27T05:55:26.197Z,24.10
2022-08-27T06:03:49.295Z,24.51
2022-08-27T06:12:12.196Z,24.47
2022-08-27T06:20:35.312Z,24.10
2022-08-27T06:29:04.142Z,24.13
2022-08-27T06:37:27.501Z,24.00
2022-08-27T06:45:50.921Z,23.84
2022-08-27T06:54:15.980Z,23.96
2022-08-27T07:02:39.184Z,24.22
2022-08-27T07:11:02.574Z,24.62
2022-08-27T07:19:25.725Z,25.12
2022-08-27T07:27:49.863Z,25.56
2022-08-27T07:36:13.006Z,25.95
2022-08-27T07:44:35.841Z,26.19
2022-08-27T07:52:58.727Z,26.30
2022-08-27T08:01:24.176Z,26.50
2022-08-27T08:09:47.199Z,26.54
2022-08-27T08:18:10.494Z,26.62
2022-08-27T08:26:34.228Z,26.79
2022-08-27T08:34:59.958Z,26.91
2022-08-27T08:43:40.186Z,27.36
2022-08-27T08:52:31.128Z,27.67
2022-08-27T09:00:59.456Z,28.11
2022-08-27T09:09:47.703Z,28.47
2022-08-27T09:18:14.537Z,28.75
2022-08-27T09:26:39.464Z,28.99
2022-08-27T09:35:09.813Z,29.16
2022-08-27T09:43:33.407Z,29.39
2022-08-27T09:51:57.838Z,29.69
2022-08-27T10:00:32.743Z,29.91
2022-08-27T10:09:06.523Z,30.16
2022-08-27T10:17:48.933Z,30.20
2022-08-27T10:26:19.444Z,30.20
2022-08-27T10:34:54.416Z,30.16
2022-08-27T10:43:30.253Z,30.23
2022-08-27T11:10:27.597Z,30.88
2022-08-27T11:18:59.318Z,30.80
2022-08-27T11:27:26.863Z,30.84
2022-08-27T11:36:09.589Z,30.88
2022-08-27T11:44:39.377Z,30.87
2022-08-27T11:53:06.858Z,30.63
2022-08-27T12:01:31.050Z,30.59
2022-08-27T12:10:16.654Z,30.76
2022-08-27T12:19:04.301Z,30.84
2022-08-27T12:27:34.234Z,30.96
2022-08-27T12:36:05.102Z,31.08
2022-08-27T12:44:28.381Z,31.09
2022-08-27T12:53:37.935Z,30.99
2022-08-27T13:02:14.755Z,30.94
2022-08-27T13:10:36.153Z,30.89
2022-08-27T13:18:58.297Z,30.84
2022-08-27T13:27:34.956Z,30.79
2022-08-27T13:35:57.984Z,30.42
2022-08-27T13:44:37.758Z,29.81
2022-08-27T13:53:26.986Z,29.36
2022-08-27T14:02:00.661Z,29.44
2022-08-27T14:10:32.854Z,29.43
2022-08-27T14:19:42.675Z,29.21
2022-08-27T14:28:04.726Z,28.81
2022-08-27T14:36:29.993Z,28.85
2022-08-27T14:44:51.990Z,29.05
2022-08-27T14:53:16.692Z,29.16
2022-08-27T15:01:38.739Z,29.17
2022-08-27T15:10:00.705Z,29.16
2022-08-27T15:18:23.382Z,29.15
2022-08-27T15:26:49.050Z,29.14
2022-08-27T15:35:18.068Z,29.04
2022-08-27T15:43:39.937Z,28.85
2022-08-27T15:52:02.226Z,28.67
2022-08-27T16:13:37.965Z,28.07
2022-08-27T16:22:00.827Z,27.72
2022-08-27T16:30:23.743Z,27.37
2022-08-27T16:38:47.134Z,27.02
2022-08-27T16:47:10.871Z,26.66
2022-08-27T16:55:35.480Z,26.25
2022-08-27T17:04:10.488Z,25.83
2022-08-27T17:12:35.827Z,25.45
2022-08-27T17:21:00.438Z,25.06
2022-08-27T17:29:24.177Z,24.64
2022-08-27T17:37:47.172Z,24.07
2022-08-27T17:46:10.557Z,22.29
2022-08-27T17:54:37.148Z,20.87
2022-08-27T18:03:00.672Z,20.22
2022-08-27T18:11:24.356Z,19.92
2022-08-27T18:19:50.658Z,19.90
2022-08-27T18:28:17.135Z,19.98
2022-08-27T18:36:40.086Z,20.03
2022-08-27T18:45:05.884Z,20.13
2022-08-27T18:53:33.447Z,20.16
2022-08-27T19:01:57.149Z,20.18
2022-08-27T19:10:21.182Z,20.20
2022-08-27T19:18:45.744Z,20.10
2022-08-27T19:27:09.548Z,20.01
2022-08-27T19:35:34.844Z,19.99
2022-08-27T19:43:57.947Z,19.91
2022-08-27T19:52:22.248Z,19.80
2022-08-27T20:00:46.026Z,19.64
2022-08-27T20:09:11.502Z,19.53
2022-08-27T20:17:34.686Z,19.33
2022-08-27T20:26:01.273Z,19.00
2022-08-27T20:34:25.373Z,18.70
2022-08-27T20:42:53.569Z,18.43
2022-08-27T20:51:17.159Z,18.29
2022-08-27T20:59:58.863Z,18.13
2022-08-27T21:08:21.899Z,17.93
2022-08-27T21:16:44.956Z,17.85
2022-08-27T21:25:13.211Z,17.87
2022-08-27T21:33:39.347Z,17.78
2022-08-27T21:42:03.026Z,17.61
2022-08-27T21:50:26.022Z,17.40
2022-08-27T21:58:49.010Z,17.33
2022-08-27T22:07:12.000Z,17.25
2022-08-27T22:15:35.807Z,17.10
2022-08-27T22:23:59.801Z,16.90
2022-08-27T22:32:22.765Z,16.83
2022-08-27T22:40:45.690Z,16.82
2022-08-27T22:49:09.676Z,16.71
2022-08-27T22:57:32.508Z,16.60
2022-08-27T23:05:55.431Z,16.53
2022-08-27T23:14:18.414Z,16.55
2022-08-27T23:22:41.650Z,16.55
2022-08-27T23:31:04.523Z,16.53
2022-08-27T23:39:27.591Z,16.44
2022-08-27T23:47:50.959Z,16.23
2022-08-27T23:56:13.961Z,16.09
